sensor_id;sensor_type;location;lat;lon;timestamp;P1;durP1;ratioP1;P2;durP2;ratioP2
36303;SDS011;22335;49.800;8.596;2023-11-18T00:00:19;21.35;;;19.52;;
36303;SDS011;22335;49.800;8.596;2023-11-18T00:07:04;21.38;;;19.23;;
36303;SDS011;22335;49.800;8.596;2023-11-18T00:13:48;20.70;;;18.90;;
36303;SDS011;22335;49.800;8.596;2023-11-18T00:27:48;22.27;;;20.15;;
36303;SDS011;22335;49.800;8.596;2023-11-18T00:43:19;21.63;;;20.02;;
36303;SDS011;22335;49.800;8.596;2023-11-18T00:58:51;20.30;;;18.50;;
36303;SDS011;22335;49.800;8.596;2023-11-18T01:05:50;22.77;;;20.77;;
36303;SDS011;22335;49.800;8.596;2023-11-18T01:12:34;22.10;;;20.13;;
36303;SDS011;22335;49.800;8.596;2023-11-18T01:19:19;21.17;;;19.23;;
36303;SDS011;22335;49.800;8.596;2023-11-18T01:26:04;21.15;;;19.40;;
36303;SDS011;22335;49.800;8.596;2023-11-18T01:32:49;22.02;;;20.02;;
36303;SDS011;22335;49.800;8.596;2023-11-18T01:39:34;21.55;;;19.75;;
36303;SDS011;22335;49.800;8.596;2023-11-18T01:46:18;22.35;;;20.48;;
36303;SDS011;22335;49.800;8.596;2023-11-18T01:53:05;21.50;;;19.52;;
36303;SDS011;22335;49.800;8.596;2023-11-18T01:59:52;21.05;;;19.13;;
36303;SDS011;22335;49.800;8.596;2023-11-18T02:06:36;22.27;;;20.27;;
36303;SDS011;22335;49.800;8.596;2023-11-18T02:13:21;22.23;;;20.20;;
36303;SDS011;22335;49.800;8.596;2023-11-18T02:20:09;21.92;;;19.85;;
36303;SDS011;22335;49.800;8.596;2023-11-18T02:26:59;22.65;;;20.65;;
36303;SDS011;22335;49.800;8.596;2023-11-18T02:33:44;21.85;;;20.05;;
36303;SDS011;22335;49.800;8.596;2023-11-18T02:40:39;22.92;;;20.83;;
36303;SDS011;22335;49.800;8.596;2023-11-18T02:56:19;21.85;;;20.05;;
36303;SDS011;22335;49.800;8.596;2023-11-18T03:03:03;21.60;;;19.70;;
36303;SDS011;22335;49.800;8.596;2023-11-18T03:09:48;23.13;;;20.77;;
36303;SDS011;22335;49.800;8.596;2023-11-18T03:24:39;20.35;;;18.55;;
36303;SDS011;22335;49.800;8.596;2023-11-18T03:31:24;22.85;;;20.98;;
36303;SDS011;22335;49.800;8.596;2023-11-18T03:38:09;21.80;;;20.08;;
36303;SDS011;22335;49.800;8.596;2023-11-18T03:44:55;22.30;;;20.35;;
36303;SDS011;22335;49.800;8.596;2023-11-18T04:06:51;22.40;;;20.50;;
36303;SDS011;22335;49.800;8.596;2023-11-18T04:13:36;23.05;;;20.98;;
36303;SDS011;22335;49.800;8.596;2023-11-18T04:20:19;23.20;;;21.20;;
36303;SDS011;22335;49.800;8.596;2023-11-18T04:27:06;24.10;;;21.83;;
36303;SDS011;22335;49.800;8.596;2023-11-18T04:33:50;24.15;;;22.05;;
36303;SDS011;22335;49.800;8.596;2023-11-18T04:40:33;24.00;;;22.05;;
36303;SDS011;22335;49.800;8.596;2023-11-18T04:47:18;24.52;;;22.33;;
36303;SDS011;22335;49.800;8.596;2023-11-18T04:54:03;23.15;;;20.92;;
36303;SDS011;22335;49.800;8.596;2023-11-18T05:00:49;25.45;;;23.02;;
36303;SDS011;22335;49.800;8.596;2023-11-18T05:07:34;23.70;;;21.45;;
36303;SDS011;22335;49.800;8.596;2023-11-18T05:14:20;24.83;;;22.63;;
36303;SDS011;22335;49.800;8.596;2023-11-18T05:21:03;25.08;;;22.88;;
36303;SDS011;22335;49.800;8.596;2023-11-18T05:27:50;24.25;;;21.67;;
36303;SDS011;22335;49.800;8.596;2023-11-18T05:34:35;24.08;;;22.05;;
36303;SDS011;22335;49.800;8.596;2023-11-18T05:41:19;25.70;;;23.48;;
36303;SDS011;22335;49.800;8.596;2023-11-18T05:48:10;24.92;;;22.73;;
36303;SDS011;22335;49.800;8.596;2023-11-18T05:54:58;24.40;;;22.17;;
36303;SDS011;22335;49.800;8.596;2023-11-18T06:01:44;24.83;;;22.33;;
36303;SDS011;22335;49.800;8.596;2023-11-18T06:08:33;25.30;;;22.70;;
36303;SDS011;22335;49.800;8.596;2023-11-18T06:15:16;24.90;;;22.60;;
36303;SDS011;22335;49.800;8.596;2023-11-18T06:22:03;23.88;;;21.65;;
36303;SDS011;22335;49.800;8.596;2023-11-18T06:28:50;23.70;;;21.50;;
36303;SDS011;22335;49.800;8.596;2023-11-18T06:35:34;24.38;;;22.27;;
36303;SDS011;22335;49.800;8.596;2023-11-18T06:42:21;24.25;;;22.10;;
36303;SDS011;22335;49.800;8.596;2023-11-18T06:49:07;24.42;;;22.35;;
36303;SDS011;22335;49.800;8.596;2023-11-18T06:55:56;24.17;;;21.58;;
36303;SDS011;22335;49.800;8.596;2023-11-18T07:02:40;23.80;;;21.35;;
36303;SDS011;22335;49.800;8.596;2023-11-18T07:09:24;25.77;;;23.15;;
36303;SDS011;22335;49.800;8.596;2023-11-18T07:16:08;26.63;;;23.95;;
36303;SDS011;22335;49.800;8.596;2023-11-18T07:22:53;28.20;;;25.38;;
36303;SDS011;22335;49.800;8.596;2023-11-18T07:29:38;29.20;;;26.05;;
36303;SDS011;22335;49.800;8.596;2023-11-18T07:36:21;35.67;;;27.33;;
36303;SDS011;22335;49.800;8.596;2023-11-18T07:43:10;32.85;;;27.92;;
36303;SDS011;22335;49.800;8.596;2023-11-18T07:49:59;34.70;;;30.33;;
36303;SDS011;22335;49.800;8.596;2023-11-18T07:56:45;32.33;;;27.98;;
36303;SDS011;22335;49.800;8.596;2023-11-18T08:10:41;33.30;;;29.23;;
36303;SDS011;22335;49.800;8.596;2023-11-18T08:17:26;35.45;;;28.95;;
36303;SDS011;22335;49.800;8.596;2023-11-18T08:24:09;38.95;;;29.40;;
36303;SDS011;22335;49.800;8.596;2023-11-18T08:30:55;34.78;;;28.98;;
36303;SDS011;22335;49.800;8.596;2023-11-18T08:37:39;36.58;;;28.45;;
36303;SDS011;22335;49.800;8.596;2023-11-18T08:44:25;36.90;;;29.52;;
36303;SDS011;22335;49.800;8.596;2023-11-18T08:51:11;36.03;;;29.42;;
36303;SDS011;22335;49.800;8.596;2023-11-18T08:57:58;37.25;;;28.60;;
36303;SDS011;22335;49.800;8.596;2023-11-18T09:04:45;31.85;;;27.60;;
36303;SDS011;22335;49.800;8.596;2023-11-18T09:11:29;27.70;;;24.70;;
36303;SDS011;22335;49.800;8.596;2023-11-18T09:18:14;27.23;;;24.17;;
36303;SDS011;22335;49.800;8.596;2023-11-18T09:24:59;29.83;;;26.13;;
36303;SDS011;22335;49.800;8.596;2023-11-18T09:31:44;28.00;;;25.00;;
36303;SDS011;22335;49.800;8.596;2023-11-18T09:38:31;24.90;;;22.52;;
36303;SDS011;22335;49.800;8.596;2023-11-18T09:45:16;25.38;;;22.95;;
36303;SDS011;22335;49.800;8.596;2023-11-18T09:52:04;25.48;;;22.90;;
36303;SDS011;22335;49.800;8.596;2023-11-18T09:58:52;25.50;;;23.08;;
36303;SDS011;22335;49.800;8.596;2023-11-18T10:05:56;24.90;;;22.50;;
36303;SDS011;22335;49.800;8.596;2023-11-18T10:12:48;25.80;;;23.20;;
36303;SDS011;22335;49.800;8.596;2023-11-18T10:33:54;25.27;;;22.80;;
36303;SDS011;22335;49.800;8.596;2023-11-18T10:40:38;25.25;;;22.70;;
36303;SDS011;22335;49.800;8.596;2023-11-18T10:47:23;24.88;;;22.55;;
36303;SDS011;22335;49.800;8.596;2023-11-18T10:54:10;26.48;;;23.77;;
36303;SDS011;22335;49.800;8.596;2023-11-18T11:00:58;24.70;;;22.27;;
36303;SDS011;22335;49.800;8.596;2023-11-18T11:07:42;25.50;;;22.05;;
36303;SDS011;22335;49.800;8.596;2023-11-18T11:14:30;24.20;;;22.10;;
36303;SDS011;22335;49.800;8.596;2023-11-18T11:21:20;25.50;;;23.15;;
36303;SDS011;22335;49.800;8.596;2023-11-18T11:35:00;24.63;;;22.15;;
36303;SDS011;22335;49.800;8.596;2023-11-18T11:41:50;23.98;;;21.77;;
36303;SDS011;22335;49.800;8.596;2023-11-18T11:48:38;23.73;;;21.30;;
36303;SDS011;22335;49.800;8.596;2023-11-18T11:55:29;24.73;;;22.20;;
36303;SDS011;22335;49.800;8.596;2023-11-18T12:02:20;23.00;;;20.90;;
36303;SDS011;22335;49.800;8.596;2023-11-18T12:09:08;24.38;;;21.90;;
36303;SDS011;22335;49.800;8.596;2023-11-18T12:15:55;21.52;;;19.50;;
36303;SDS011;22335;49.800;8.596;2023-11-18T12:29:55;19.70;;;18.20;;
36303;SDS011;22335;49.800;8.596;2023-11-18T12:36:47;19.10;;;17.70;;
36303;SDS011;22335;49.800;8.596;2023-11-18T12:44:30;18.80;;;17.17;;
36303;SDS011;22335;49.800;8.596;2023-11-18T12:51:23;18.30;;;16.90;;
36303;SDS011;22335;49.800;8.596;2023-11-18T12:58:08;17.90;;;16.48;;
36303;SDS011;22335;49.800;8.596;2023-11-18T13:04:53;18.10;;;16.70;;
36303;SDS011;22335;49.800;8.596;2023-11-18T13:11:36;18.10;;;16.50;;
36303;SDS011;22335;49.800;8.596;2023-11-18T13:18:25;18.73;;;17.00;;
36303;SDS011;22335;49.800;8.596;2023-11-18T13:25:12;18.50;;;16.90;;
36303;SDS011;22335;49.800;8.596;2023-11-18T13:31:59;18.20;;;16.50;;
36303;SDS011;22335;49.800;8.596;2023-11-18T13:38:47;17.73;;;16.30;;
36303;SDS011;22335;49.800;8.596;2023-11-18T13:45:34;18.17;;;16.83;;
36303;SDS011;22335;49.800;8.596;2023-11-18T13:52:18;16.63;;;15.32;;
36303;SDS011;22335;49.800;8.596;2023-11-18T13:59:04;17.10;;;15.60;;
36303;SDS011;22335;49.800;8.596;2023-11-18T14:05:50;16.25;;;15.00;;
36303;SDS011;22335;49.800;8.596;2023-11-18T14:12:37;17.40;;;16.00;;
36303;SDS011;22335;49.800;8.596;2023-11-18T14:19:22;17.30;;;15.93;;
36303;SDS011;22335;49.800;8.596;2023-11-18T14:26:09;15.80;;;14.50;;
36303;SDS011;22335;49.800;8.596;2023-11-18T14:32:53;15.98;;;14.70;;
36303;SDS011;22335;49.800;8.596;2023-11-18T14:39:38;16.60;;;15.50;;
36303;SDS011;22335;49.800;8.596;2023-11-18T14:46:27;15.68;;;14.65;;
36303;SDS011;22335;49.800;8.596;2023-11-18T14:53:12;16.70;;;15.30;;
36303;SDS011;22335;49.800;8.596;2023-11-18T15:00:02;15.15;;;14.10;;
36303;SDS011;22335;49.800;8.596;2023-11-18T15:07:00;16.38;;;14.98;;
36303;SDS011;22335;49.800;8.596;2023-11-18T15:13:43;15.40;;;14.30;;
36303;SDS011;22335;49.800;8.596;2023-11-18T15:20:28;16.48;;;15.43;;
36303;SDS011;22335;49.800;8.596;2023-11-18T15:27:12;16.35;;;14.80;;
36303;SDS011;22335;49.800;8.596;2023-11-18T15:33:56;16.15;;;14.80;;
36303;SDS011;22335;49.800;8.596;2023-11-18T15:40:41;16.25;;;14.60;;
36303;SDS011;22335;49.800;8.596;2023-11-18T15:47:25;17.02;;;15.80;;
36303;SDS011;22335;49.800;8.596;2023-11-18T15:54:09;15.90;;;14.80;;
36303;SDS011;22335;49.800;8.596;2023-11-18T16:00:54;16.67;;;15.25;;
36303;SDS011;22335;49.800;8.596;2023-11-18T16:07:38;17.55;;;16.25;;
36303;SDS011;22335;49.800;8.596;2023-11-18T16:14:22;16.80;;;15.70;;
36303;SDS011;22335;49.800;8.596;2023-11-18T16:21:07;15.45;;;14.45;;
36303;SDS011;22335;49.800;8.596;2023-11-18T16:27:56;15.50;;;14.20;;
36303;SDS011;22335;49.800;8.596;2023-11-18T16:34:43;15.85;;;14.45;;
36303;SDS011;22335;49.800;8.596;2023-11-18T16:41:28;15.48;;;14.18;;
36303;SDS011;22335;49.800;8.596;2023-11-18T16:48:16;15.90;;;14.68;;
36303;SDS011;22335;49.800;8.596;2023-11-18T16:55:02;15.25;;;14.00;;
36303;SDS011;22335;49.800;8.596;2023-11-18T17:01:48;16.13;;;14.75;;
36303;SDS011;22335;49.800;8.596;2023-11-18T17:08:32;16.13;;;14.82;;
36303;SDS011;22335;49.800;8.596;2023-11-18T17:22:27;16.40;;;15.00;;
36303;SDS011;22335;49.800;8.596;2023-11-18T17:29:10;16.45;;;15.15;;
36303;SDS011;22335;49.800;8.596;2023-11-18T17:35:55;16.67;;;15.00;;
36303;SDS011;22335;49.800;8.596;2023-11-18T17:42:41;16.60;;;15.10;;
36303;SDS011;22335;49.800;8.596;2023-11-18T17:49:30;15.70;;;14.57;;
36303;SDS011;22335;49.800;8.596;2023-11-18T17:56:14;18.15;;;16.67;;
36303;SDS011;22335;49.800;8.596;2023-11-18T18:03:00;16.92;;;15.60;;
36303;SDS011;22335;49.800;8.596;2023-11-18T18:09:44;16.42;;;15.32;;
36303;SDS011;22335;49.800;8.596;2023-11-18T18:16:29;16.40;;;15.10;;
36303;SDS011;22335;49.800;8.596;2023-11-18T18:23:14;15.30;;;14.25;;
36303;SDS011;22335;49.800;8.596;2023-11-18T18:29:58;16.35;;;15.30;;
36303;SDS011;22335;49.800;8.596;2023-11-18T18:36:42;16.05;;;15.00;;
36303;SDS011;22335;49.800;8.596;2023-11-18T18:43:27;16.17;;;15.07;;
36303;SDS011;22335;49.800;8.596;2023-11-18T18:50:11;15.00;;;14.00;;
36303;SDS011;22335;49.800;8.596;2023-11-18T18:56:55;15.90;;;14.90;;
36303;SDS011;22335;49.800;8.596;2023-11-18T19:03:41;15.20;;;14.10;;
36303;SDS011;22335;49.800;8.596;2023-11-18T19:10:26;15.40;;;14.40;;
36303;SDS011;22335;49.800;8.596;2023-11-18T19:17:09;15.07;;;14.02;;
36303;SDS011;22335;49.800;8.596;2023-11-18T19:23:56;15.70;;;14.50;;
36303;SDS011;22335;49.800;8.596;2023-11-18T19:30:41;16.70;;;15.50;;
36303;SDS011;22335;49.800;8.596;2023-11-18T19:37:25;16.33;;;15.32;;
36303;SDS011;22335;49.800;8.596;2023-11-18T19:44:10;16.00;;;14.93;;
36303;SDS011;22335;49.800;8.596;2023-11-18T19:50:54;16.27;;;15.00;;
36303;SDS011;22335;49.800;8.596;2023-11-18T19:57:37;16.20;;;14.88;;
36303;SDS011;22335;49.800;8.596;2023-11-18T20:04:23;16.45;;;15.20;;
36303;SDS011;22335;49.800;8.596;2023-11-18T20:11:07;16.20;;;14.90;;
36303;SDS011;22335;49.800;8.596;2023-11-18T20:17:51;16.90;;;15.60;;
36303;SDS011;22335;49.800;8.596;2023-11-18T20:24:38;16.40;;;14.98;;
36303;SDS011;22335;49.800;8.596;2023-11-18T20:31:21;17.13;;;15.50;;
36303;SDS011;22335;49.800;8.596;2023-11-18T20:38:05;17.70;;;16.08;;
36303;SDS011;22335;49.800;8.596;2023-11-18T20:44:51;17.30;;;15.70;;
36303;SDS011;22335;49.800;8.596;2023-11-18T20:51:35;17.05;;;15.85;;
36303;SDS011;22335;49.800;8.596;2023-11-18T20:58:18;17.80;;;16.48;;
36303;SDS011;22335;49.800;8.596;2023-11-18T21:05:04;18.65;;;16.85;;
36303;SDS011;22335;49.800;8.596;2023-11-18T21:11:50;18.17;;;16.70;;
36303;SDS011;22335;49.800;8.596;2023-11-18T21:18:39;18.02;;;16.70;;
36303;SDS011;22335;49.800;8.596;2023-11-18T21:25:25;17.95;;;16.35;;
36303;SDS011;22335;49.800;8.596;2023-11-18T21:32:10;17.75;;;16.30;;
36303;SDS011;22335;49.800;8.596;2023-11-18T21:38:53;17.65;;;16.10;;
36303;SDS011;22335;49.800;8.596;2023-11-18T21:45:38;17.77;;;16.10;;
36303;SDS011;22335;49.800;8.596;2023-11-18T21:52:23;17.80;;;16.38;;
36303;SDS011;22335;49.800;8.596;2023-11-18T21:59:07;18.50;;;16.95;;
36303;SDS011;22335;49.800;8.596;2023-11-18T22:05:56;19.75;;;18.15;;
36303;SDS011;22335;49.800;8.596;2023-11-18T22:12:39;18.48;;;17.02;;
36303;SDS011;22335;49.800;8.596;2023-11-18T22:19:24;18.38;;;16.73;;
36303;SDS011;22335;49.800;8.596;2023-11-18T22:26:15;18.42;;;16.80;;
36303;SDS011;22335;49.800;8.596;2023-11-18T22:33:01;19.42;;;17.45;;
36303;SDS011;22335;49.800;8.596;2023-11-18T22:39:46;18.52;;;16.98;;
36303;SDS011;22335;49.800;8.596;2023-11-18T22:46:31;18.27;;;16.77;;
36303;SDS011;22335;49.800;8.596;2023-11-18T22:53:15;19.02;;;17.70;;
36303;SDS011;22335;49.800;8.596;2023-11-18T22:59:59;18.92;;;17.20;;
36303;SDS011;22335;49.800;8.596;2023-11-18T23:06:45;19.38;;;17.88;;
36303;SDS011;22335;49.800;8.596;2023-11-18T23:13:36;20.00;;;17.80;;
36303;SDS011;22335;49.800;8.596;2023-11-18T23:20:20;19.80;;;18.13;;
36303;SDS011;22335;49.800;8.596;2023-11-18T23:27:06;19.90;;;18.30;;
36303;SDS011;22335;49.800;8.596;2023-11-18T23:33:50;18.50;;;17.20;;
36303;SDS011;22335;49.800;8.596;2023-11-18T23:40:34;19.65;;;17.83;;
36303;SDS011;22335;49.800;8.596;2023-11-18T23:47:20;20.23;;;18.50;;
36303;SDS011;22335;49.800;8.596;2023-11-18T23:54:04;20.50;;;18.77;;
